Allingtown, Connecticut
Current Conditions -  °F | °C
As of 12:53 AM on Monday 24 Nov 2014 (Local Time) from KHVN Reporting Station
Overcast Overcast  
Wind Chill: 53°   Ceiling: 4000
Heat Index: 53°   Visibility: 10mi
Dew Point: 46°   Wind: 9mph
Humidity: 77%   Direction: 90°E
Pressure: 30"   Gusts: NA
Location:  41.2716°N, 72.9666°W
Report Text: KHVN 240553Z AUTO 09008KT 10SM FEW006 BKN040 OVC055 12/08 A3000 RMK AO2 SLP157 T01170078 10117 20033 58036
Loading
Personal Weather Stations






























Interactive Weather Map New forecast layout! Learn more

10-Day Weather Forecast

Advertisements
Track Severe Weather on mobile